createdAt,value
2022-12-04T00:00:34.300Z,1015.19
2022-12-04T00:01:34.292Z,1015.21
2022-12-04T00:02:34.359Z,1015.21
2022-12-04T00:03:34.302Z,1015.16
2022-12-04T00:04:34.392Z,1015.16
2022-12-04T00:05:34.323Z,1015.17
2022-12-04T00:06:34.303Z,1015.18
2022-12-04T00:07:34.364Z,1015.23
2022-12-04T00:08:34.295Z,1015.24
2022-12-04T00:09:34.297Z,1015.23
2022-12-04T00:10:34.305Z,1015.21
2022-12-04T00:11:34.307Z,1015.19
2022-12-04T00:12:34.299Z,1015.15
2022-12-04T00:13:34.301Z,1015.17
2022-12-04T00:14:34.481Z,1015.15
2022-12-04T00:15:34.310Z,1015.14
2022-12-04T00:16:34.363Z,1015.16
2022-12-04T00:17:34.305Z,1015.18
2022-12-04T00:18:34.303Z,1015.15
2022-12-04T00:19:34.313Z,1015.15
2022-12-04T00:20:34.316Z,1015.14
2022-12-04T00:21:34.390Z,1015.16
2022-12-04T00:22:34.312Z,1015.20
2022-12-04T00:23:34.308Z,1015.15
2022-12-04T00:24:34.316Z,1015.16
2022-12-04T00:25:40.804Z,1015.16
2022-12-04T00:26:34.316Z,1015.15
2022-12-04T00:27:34.311Z,1015.17
2022-12-04T00:28:34.319Z,1015.18
2022-12-04T00:29:34.319Z,1015.21
2022-12-04T00:30:34.320Z,1015.18
2022-12-04T00:31:34.374Z,1015.22
2022-12-04T00:32:34.313Z,1015.15
2022-12-04T00:33:34.325Z,1015.14
2022-12-04T00:34:34.318Z,1015.13
2022-12-04T00:35:34.321Z,1015.15
2022-12-04T00:36:34.316Z,1015.12
2022-12-04T00:37:34.345Z,1015.10
2022-12-04T00:38:34.318Z,1015.13
2022-12-04T00:39:34.325Z,1015.17
2022-12-04T00:40:34.319Z,1015.21
2022-12-04T00:41:34.319Z,1015.18
2022-12-04T00:42:34.328Z,1015.18
2022-12-04T00:43:34.321Z,1015.20
2022-12-04T00:44:34.326Z,1015.17
2022-12-04T00:45:34.367Z,1015.16
2022-12-04T00:46:34.328Z,1015.18
2022-12-04T00:47:34.325Z,1015.20
2022-12-04T00:48:34.327Z,1015.19
2022-12-04T00:49:34.325Z,1015.17
2022-12-04T00:50:34.334Z,1015.17
2022-12-04T00:51:34.334Z,1015.21
2022-12-04T00:52:34.332Z,1015.16
2022-12-04T00:53:34.350Z,1015.19
2022-12-04T00:54:34.336Z,1015.23
2022-12-04T00:55:34.329Z,1015.20
2022-12-04T00:56:34.327Z,1015.18
2022-12-04T00:57:34.339Z,1015.20
2022-12-04T00:58:34.330Z,1015.18
2022-12-04T00:59:34.331Z,1015.12
2022-12-04T01:00:34.332Z,1015.14
2022-12-04T01:01:34.409Z,1015.15
2022-12-04T01:02:34.406Z,1015.15
2022-12-04T01:03:34.382Z,1015.13
2022-12-04T01:04:34.343Z,1015.16
2022-12-04T01:05:34.341Z,1015.10
2022-12-04T01:06:34.349Z,1015.12
2022-12-04T01:07:34.367Z,1015.07
2022-12-04T01:08:40.729Z,1015.10
2022-12-04T01:09:34.345Z,1015.11
2022-12-04T01:10:34.348Z,1015.05
2022-12-04T01:11:34.349Z,1015.09
2022-12-04T01:12:34.401Z,1015.10
2022-12-04T01:13:34.350Z,1015.13
2022-12-04T01:14:34.344Z,1015.12
2022-12-04T01:15:34.351Z,1015.16
2022-12-04T01:16:34.432Z,1015.18
2022-12-04T01:17:34.344Z,1015.21
2022-12-04T01:18:34.352Z,1015.24
2022-12-04T01:19:34.347Z,1015.22
2022-12-04T01:20:34.351Z,1015.22
2022-12-04T01:21:34.355Z,1015.23
2022-12-04T01:22:34.357Z,1015.19
2022-12-04T01:23:34.357Z,1015.20
2022-12-04T01:24:34.352Z,1015.17
2022-12-04T01:25:34.357Z,1015.20
2022-12-04T01:26:34.359Z,1015.19
2022-12-04T01:27:34.354Z,1015.17
2022-12-04T01:28:34.379Z,1015.17
2022-12-04T01:29:34.362Z,1015.19
2022-12-04T01:30:34.353Z,1015.14
2022-12-04T01:31:34.387Z,1015.13
2022-12-04T01:32:34.362Z,1015.13
2022-12-04T01:33:34.365Z,1015.10
2022-12-04T01:34:34.364Z,1015.11
2022-12-04T01:35:34.360Z,1015.08
2022-12-04T01:36:34.361Z,1015.06
2022-12-04T01:37:34.361Z,1015.02
2022-12-04T01:38:34.367Z,1015.05
2022-12-04T01:39:34.371Z,1015.00
2022-12-04T01:40:34.363Z,1015.00
2022-12-04T01:41:34.365Z,1015.02
2022-12-04T01:42:34.370Z,1014.99
2022-12-04T01:43:34.367Z,1015.05
2022-12-04T01:44:34.399Z,1015.01
2022-12-04T01:45:34.457Z,1015.00
2022-12-04T01:46:34.376Z,1014.98
2022-12-04T01:47:34.369Z,1014.96
2022-12-04T01:48:34.368Z,1014.98
2022-12-04T01:49:34.375Z,1014.93
2022-12-04T01:50:34.381Z,1014.89
2022-12-04T01:51:34.379Z,1014.93
2022-12-04T01:52:34.372Z,1014.91
2022-12-04T01:53:34.378Z,1014.92
2022-12-04T01:54:34.374Z,1014.88
2022-12-04T01:55:34.381Z,1014.89
2022-12-04T01:56:34.384Z,1014.87
2022-12-04T01:57:34.375Z,1014.83
2022-12-04T01:58:34.377Z,1014.88
2022-12-04T01:59:34.375Z,1014.86
2022-12-04T02:00:34.402Z,1014.89
2022-12-04T02:01:34.428Z,1014.87
2022-12-04T02:02:34.468Z,1014.84
2022-12-04T02:03:34.387Z,1014.89
2022-12-04T02:04:34.379Z,1014.88
2022-12-04T02:05:34.389Z,1014.88
2022-12-04T02:06:34.388Z,1014.87
2022-12-04T02:07:34.490Z,1014.86
2022-12-04T02:08:34.390Z,1014.83
2022-12-04T02:09:34.383Z,1014.79
2022-12-04T02:10:34.383Z,1014.79
2022-12-04T02:11:34.394Z,1014.80
2022-12-04T02:12:34.392Z,1014.82
2022-12-04T02:13:34.386Z,1014.77
2022-12-04T02:14:34.393Z,1014.77
2022-12-04T02:15:34.388Z,1014.78
2022-12-04T02:16:34.453Z,1014.81
2022-12-04T02:17:34.397Z,1014.77
2022-12-04T02:18:34.390Z,1014.80
2022-12-04T02:19:34.392Z,1014.79
2022-12-04T02:20:34.392Z,1014.75
2022-12-04T02:21:34.390Z,1014.74
2022-12-04T02:22:34.407Z,1014.72
2022-12-04T02:23:34.394Z,1014.73
2022-12-04T02:24:34.393Z,1014.70
2022-12-04T02:25:34.402Z,1014.69
2022-12-04T02:26:34.401Z,1014.65
2022-12-04T02:27:34.405Z,1014.64
2022-12-04T02:28:34.396Z,1014.65
2022-12-04T02:29:34.406Z,1014.65
2022-12-04T02:30:34.419Z,1014.66
2022-12-04T02:31:34.400Z,1014.66
2022-12-04T02:32:34.431Z,1014.65
2022-12-04T02:33:34.401Z,1014.64
2022-12-04T02:34:34.409Z,1014.62
2022-12-04T02:35:34.402Z,1014.67
2022-12-04T02:36:34.408Z,1014.65
2022-12-04T02:37:34.417Z,1014.70
2022-12-04T02:38:34.410Z,1014.66
2022-12-04T02:39:34.409Z,1014.65
2022-12-04T02:40:34.406Z,1014.65
2022-12-04T02:41:34.419Z,1014.66
2022-12-04T02:42:34.406Z,1014.65
2022-12-04T02:43:34.410Z,1014.64
2022-12-04T02:44:34.407Z,1014.64
2022-12-04T02:45:34.455Z,1014.64
2022-12-04T02:46:34.409Z,1014.65
2022-12-04T02:47:34.411Z,1014.68
2022-12-04T02:48:34.436Z,1014.68
2022-12-04T02:49:34.417Z,1014.62
2022-12-04T02:50:34.430Z,1014.62
2022-12-04T02:51:34.413Z,1014.65
2022-12-04T02:52:34.413Z,1014.64
2022-12-04T02:53:34.416Z,1014.67
2022-12-04T02:54:34.417Z,1014.69
2022-12-04T02:55:34.425Z,1014.65
2022-12-04T02:56:34.423Z,1014.65
2022-12-04T02:57:34.426Z,1014.67
2022-12-04T02:58:34.418Z,1014.62
2022-12-04T02:59:34.420Z,1014.62
2022-12-04T03:00:34.426Z,1014.64
2022-12-04T03:01:34.512Z,1014.68
2022-12-04T03:02:34.504Z,1014.72
2022-12-04T03:03:34.427Z,1014.76
2022-12-04T03:04:34.447Z,1014.73
2022-12-04T03:05:34.425Z,1014.72
2022-12-04T03:06:34.430Z,1014.73
2022-12-04T03:07:34.502Z,1014.75
2022-12-04T03:08:34.432Z,1014.72
2022-12-04T03:09:34.433Z,1014.72
2022-12-04T03:10:34.436Z,1014.74
2022-12-04T03:11:34.437Z,1014.75
2022-12-04T03:12:34.435Z,1014.78
2022-12-04T03:13:34.428Z,1014.75
2022-12-04T03:14:34.437Z,1014.77
2022-12-04T03:15:34.436Z,1014.79
2022-12-04T03:16:34.481Z,1014.81
2022-12-04T03:17:34.437Z,1014.79
2022-12-04T03:18:34.434Z,1014.77
2022-12-04T03:19:34.432Z,1014.78
2022-12-04T03:20:34.458Z,1014.79
2022-12-04T03:21:34.441Z,1014.76
2022-12-04T03:22:34.443Z,1014.79
2022-12-04T03:23:34.439Z,1014.76
2022-12-04T03:24:34.438Z,1014.70
2022-12-04T03:25:34.442Z,1014.74
2022-12-04T03:26:34.438Z,1014.73
2022-12-04T03:27:34.446Z,1014.76
2022-12-04T03:28:34.444Z,1014.79
2022-12-04T03:29:34.440Z,1014.79
2022-12-04T03:30:34.498Z,1014.81
2022-12-04T03:31:34.442Z,1014.81
2022-12-04T03:32:34.439Z,1014.81
2022-12-04T03:33:34.443Z,1014.79
2022-12-04T03:34:34.449Z,1014.80
2022-12-04T03:35:34.446Z,1014.76
2022-12-04T03:36:34.475Z,1014.73
2022-12-04T03:37:34.452Z,1014.74
2022-12-04T03:38:34.444Z,1014.73
2022-12-04T03:39:34.448Z,1014.77
2022-12-04T03:40:34.445Z,1014.78
2022-12-04T03:41:34.455Z,1014.82
2022-12-04T03:42:34.446Z,1014.83
2022-12-04T03:43:34.456Z,1014.82
2022-12-04T03:44:34.448Z,1014.82
2022-12-04T03:45:34.448Z,1014.76
2022-12-04T03:46:34.519Z,1014.77
2022-12-04T03:47:34.456Z,1014.74
2022-12-04T03:48:34.454Z,1014.71
2022-12-04T03:49:34.450Z,1014.74
2022-12-04T03:50:34.453Z,1014.77
2022-12-04T03:51:34.453Z,1014.75
2022-12-04T03:52:34.485Z,1014.79
2022-12-04T03:53:34.453Z,1014.76
2022-12-04T03:54:34.462Z,1014.75
2022-12-04T03:55:34.462Z,1014.74
2022-12-04T03:56:34.457Z,1014.74
2022-12-04T03:57:34.462Z,1014.72
2022-12-04T03:58:34.466Z,1014.73
2022-12-04T03:59:34.464Z,1014.67
2022-12-04T04:00:34.458Z,1014.64
2022-12-04T04:01:34.495Z,1014.59
2022-12-04T04:02:34.555Z,1014.53
2022-12-04T04:03:34.474Z,1014.58
2022-12-04T04:04:34.460Z,1014.63
2022-12-04T04:05:34.463Z,1014.65
2022-12-04T04:06:34.470Z,1014.68
2022-12-04T04:07:35.764Z,1014.66
2022-12-04T04:08:34.489Z,1014.64
2022-12-04T04:09:34.466Z,1014.63
2022-12-04T04:10:34.465Z,1014.59
2022-12-04T04:11:34.476Z,1014.59
2022-12-04T04:12:34.467Z,1014.51
2022-12-04T04:13:34.476Z,1014.54
2022-12-04T04:14:34.522Z,1014.55
2022-12-04T04:15:34.579Z,1014.62
2022-12-04T04:16:34.475Z,1014.60
2022-12-04T04:17:38.390Z,1014.63
2022-12-04T04:18:34.479Z,1014.67
2022-12-04T04:19:34.477Z,1014.63
2022-12-04T04:20:34.475Z,1014.67
2022-12-04T04:21:34.477Z,1014.73
2022-12-04T04:22:34.478Z,1014.69
2022-12-04T04:23:34.474Z,1014.64
2022-12-04T04:24:34.501Z,1014.62
2022-12-04T04:25:34.475Z,1014.66
2022-12-04T04:26:34.478Z,1014.71
2022-12-04T04:27:34.504Z,1014.71
2022-12-04T04:28:34.496Z,1014.71
2022-12-04T04:29:34.492Z,1014.71
2022-12-04T04:30:34.488Z,1014.59
2022-12-04T04:31:34.617Z,1014.65
2022-12-04T04:32:34.484Z,1014.60
2022-12-04T04:33:34.479Z,1014.60
2022-12-04T04:34:34.482Z,1014.61
2022-12-04T04:35:34.490Z,1014.57
2022-12-04T04:36:34.488Z,1014.61
2022-12-04T04:37:34.486Z,1014.56
2022-12-04T04:38:34.484Z,1014.58
2022-12-04T04:39:34.493Z,1014.60
2022-12-04T04:40:34.510Z,1014.62
2022-12-04T04:41:34.488Z,1014.56
2022-12-04T04:42:34.487Z,1014.60
2022-12-04T04:43:34.495Z,1014.61
2022-12-04T04:44:34.506Z,1014.62
2022-12-04T04:45:34.496Z,1014.57
2022-12-04T04:46:34.603Z,1014.52
2022-12-04T04:47:34.490Z,1014.57
2022-12-04T04:48:34.496Z,1014.55
2022-12-04T04:49:34.493Z,1014.55
2022-12-04T04:50:34.499Z,1014.59
2022-12-04T04:51:34.501Z,1014.62
2022-12-04T04:52:34.498Z,1014.62
2022-12-04T04:53:34.502Z,1014.64
2022-12-04T04:54:34.497Z,1014.63
2022-12-04T04:55:34.639Z,1014.65
2022-12-04T04:56:34.520Z,1014.59
2022-12-04T04:57:34.505Z,1014.57
2022-12-04T04:58:34.496Z,1014.58
2022-12-04T04:59:34.499Z,1014.56
2022-12-04T05:00:34.498Z,1014.64
2022-12-04T05:01:34.566Z,1014.61
2022-12-04T05:02:34.591Z,1014.63
2022-12-04T05:03:34.500Z,1014.60
2022-12-04T05:04:34.500Z,1014.58
2022-12-04T05:05:34.501Z,1014.63
2022-12-04T05:06:34.509Z,1014.62
2022-12-04T05:07:34.576Z,1014.62
2022-12-04T05:08:34.512Z,1014.61
2022-12-04T05:09:38.196Z,1014.61
2022-12-04T05:10:34.509Z,1014.64
2022-12-04T05:11:34.507Z,1014.64
2022-12-04T05:12:34.533Z,1014.67
2022-12-04T05:13:34.515Z,1014.65
2022-12-04T05:14:34.512Z,1014.66
2022-12-04T05:15:34.530Z,1014.65
2022-12-04T05:16:34.597Z,1014.65
2022-12-04T05:17:34.509Z,1014.67
2022-12-04T05:18:34.509Z,1014.67
2022-12-04T05:19:34.518Z,1014.67
2022-12-04T05:20:34.518Z,1014.65
2022-12-04T05:21:34.519Z,1014.65
2022-12-04T05:22:34.521Z,1014.67
2022-12-04T05:23:34.528Z,1014.65
2022-12-04T05:24:34.521Z,1014.65
2022-12-04T05:25:34.515Z,1014.62
2022-12-04T05:26:34.516Z,1014.61
2022-12-04T05:27:34.523Z,1014.65
2022-12-04T05:28:34.548Z,1014.62
2022-12-04T05:29:36.095Z,1014.64
2022-12-04T05:30:34.522Z,1014.63
2022-12-04T05:31:34.623Z,1014.66
2022-12-04T05:32:34.519Z,1014.69
2022-12-04T05:33:34.527Z,1014.71
2022-12-04T05:34:34.521Z,1014.67
2022-12-04T05:35:34.525Z,1014.67
2022-12-04T05:36:34.529Z,1014.65
2022-12-04T05:37:34.529Z,1014.60
2022-12-04T05:38:34.524Z,1014.64
2022-12-04T05:39:34.530Z,1014.61
2022-12-04T05:40:34.525Z,1014.61
2022-12-04T05:41:34.526Z,1014.63
2022-12-04T05:42:34.534Z,1014.60
2022-12-04T05:43:34.526Z,1014.55
2022-12-04T05:44:34.554Z,1014.54
2022-12-04T05:45:34.533Z,1014.57
2022-12-04T05:46:34.605Z,1014.55
2022-12-04T05:47:34.530Z,1014.55
2022-12-04T05:48:34.535Z,1014.56
2022-12-04T05:49:34.531Z,1014.57
2022-12-04T05:50:34.539Z,1014.54
2022-12-04T05:51:34.539Z,1014.56
2022-12-04T05:52:34.531Z,1014.56
2022-12-04T05:53:34.541Z,1014.51
2022-12-04T05:54:34.533Z,1014.54
2022-12-04T05:55:34.535Z,1014.50
2022-12-04T05:56:34.533Z,1014.51
2022-12-04T05:57:34.535Z,1014.52
2022-12-04T05:58:34.542Z,1014.50
2022-12-04T05:59:34.538Z,1014.49
2022-12-04T06:00:34.563Z,1014.47
2022-12-04T06:01:34.606Z,1014.51
2022-12-04T06:02:34.699Z,1014.46
2022-12-04T06:03:34.645Z,1014.48
2022-12-04T06:04:34.539Z,1014.47
2022-12-04T06:05:34.549Z,1014.54
2022-12-04T06:06:34.547Z,1014.52
2022-12-04T06:07:34.604Z,1014.52
2022-12-04T06:08:34.542Z,1014.54
2022-12-04T06:09:34.544Z,1014.49
2022-12-04T06:10:34.549Z,1014.51
2022-12-04T06:11:34.554Z,1014.52
2022-12-04T06:12:34.544Z,1014.51
2022-12-04T06:13:34.553Z,1014.52
2022-12-04T06:14:39.252Z,1014.48
2022-12-04T06:15:34.555Z,1014.43
2022-12-04T06:16:34.649Z,1014.43
2022-12-04T06:17:34.555Z,1014.44
2022-12-04T06:18:34.556Z,1014.43
2022-12-04T06:19:34.558Z,1014.46
2022-12-04T06:20:34.717Z,1014.50
2022-12-04T06:21:34.552Z,1014.55
2022-12-04T06:22:34.550Z,1014.51
2022-12-04T06:23:34.553Z,1014.51
2022-12-04T06:24:34.552Z,1014.49
2022-12-04T06:25:34.560Z,1014.50
2022-12-04T06:26:34.552Z,1014.55
2022-12-04T06:27:34.563Z,1014.57
2022-12-04T06:28:34.561Z,1014.62
2022-12-04T06:29:34.556Z,1014.62
2022-12-04T06:30:34.563Z,1014.53
2022-12-04T06:31:34.657Z,1014.52
2022-12-04T06:32:34.579Z,1014.54
2022-12-04T06:33:34.568Z,1014.50
2022-12-04T06:34:34.567Z,1014.52
2022-12-04T06:35:34.558Z,1014.54
2022-12-04T06:36:34.563Z,1014.50
2022-12-04T06:37:34.558Z,1014.55
2022-12-04T06:38:34.568Z,1014.56
2022-12-04T06:39:34.567Z,1014.59
2022-12-04T06:40:34.635Z,1014.59
2022-12-04T06:41:34.559Z,1014.64
2022-12-04T06:42:34.562Z,1014.63
2022-12-04T06:43:34.568Z,1014.63
2022-12-04T06:44:34.570Z,1014.67
2022-12-04T06:45:34.625Z,1014.70
2022-12-04T06:46:34.571Z,1014.72
2022-12-04T06:47:34.566Z,1014.71
2022-12-04T06:48:34.600Z,1014.67
2022-12-04T06:49:34.566Z,1014.70
2022-12-04T06:50:34.575Z,1014.70
2022-12-04T06:51:34.566Z,1014.69
2022-12-04T06:52:34.575Z,1014.67
2022-12-04T06:53:34.575Z,1014.66
2022-12-04T06:54:34.571Z,1014.68
2022-12-04T06:55:34.569Z,1014.71
2022-12-04T06:56:34.575Z,1014.70
2022-12-04T06:57:34.570Z,1014.68
2022-12-04T06:58:34.569Z,1014.67
2022-12-04T06:59:34.571Z,1014.69
2022-12-04T07:00:34.576Z,1014.70
2022-12-04T07:01:34.766Z,1014.69
2022-12-04T07:02:34.616Z,1014.66
2022-12-04T07:03:34.573Z,1014.66
2022-12-04T07:04:34.595Z,1014.63
2022-12-04T07:05:34.572Z,1014.62
2022-12-04T07:06:34.579Z,1014.63
2022-12-04T07:07:34.665Z,1014.62
2022-12-04T07:08:34.572Z,1014.62
2022-12-04T07:09:34.582Z,1014.63
2022-12-04T07:10:34.582Z,1014.68
2022-12-04T07:11:34.584Z,1014.64
2022-12-04T07:12:34.575Z,1014.66
2022-12-04T07:13:34.582Z,1014.70
2022-12-04T07:14:34.579Z,1014.72
2022-12-04T07:15:34.585Z,1014.71
2022-12-04T07:16:40.309Z,1014.71
2022-12-04T07:17:34.580Z,1014.75
2022-12-04T07:18:34.579Z,1014.72
2022-12-04T07:19:34.580Z,1014.75
2022-12-04T07:20:34.611Z,1014.73
2022-12-04T07:21:34.610Z,1014.73
2022-12-04T07:22:34.586Z,1014.73
2022-12-04T07:23:34.583Z,1014.77
2022-12-04T07:24:34.581Z,1014.76
2022-12-04T07:25:34.591Z,1014.79
2022-12-04T07:26:34.592Z,1014.78
2022-12-04T07:27:34.584Z,1014.82
2022-12-04T07:28:34.583Z,1014.83
2022-12-04T07:29:34.583Z,1014.77
2022-12-04T07:30:34.584Z,1014.84
2022-12-04T07:31:34.656Z,1014.87
2022-12-04T07:32:34.595Z,1014.87
2022-12-04T07:33:34.594Z,1014.87
2022-12-04T07:34:34.587Z,1014.84
2022-12-04T07:35:34.594Z,1014.85
2022-12-04T07:36:34.617Z,1014.82
2022-12-04T07:37:34.587Z,1014.78
2022-12-04T07:38:34.590Z,1014.78
2022-12-04T07:39:34.597Z,1014.77
2022-12-04T07:40:34.598Z,1014.74
2022-12-04T07:41:34.590Z,1014.75
2022-12-04T07:42:34.599Z,1014.75
2022-12-04T07:43:34.607Z,1014.72
2022-12-04T07:44:34.600Z,1014.73
2022-12-04T07:45:34.701Z,1014.76
2022-12-04T07:46:34.710Z,1014.78
2022-12-04T07:47:34.595Z,1014.78
2022-12-04T07:48:34.594Z,1014.76
2022-12-04T07:49:34.615Z,1014.77
2022-12-04T07:50:34.602Z,1014.75
2022-12-04T07:51:34.604Z,1014.77
2022-12-04T07:52:34.622Z,1014.77
2022-12-04T07:53:34.599Z,1014.81
2022-12-04T07:54:34.605Z,1014.78
2022-12-04T07:55:34.607Z,1014.80
2022-12-04T07:56:34.704Z,1014.81
2022-12-04T07:57:34.599Z,1014.79
2022-12-04T07:58:34.600Z,1014.84
2022-12-04T07:59:34.603Z,1014.84
2022-12-04T08:00:34.609Z,1014.82
2022-12-04T08:01:34.672Z,1014.83
2022-12-04T08:02:34.602Z,1014.86
2022-12-04T08:03:34.602Z,1014.85
2022-12-04T08:04:34.650Z,1014.87
2022-12-04T08:05:34.610Z,1014.87
2022-12-04T08:06:34.613Z,1014.85
2022-12-04T08:07:34.703Z,1014.91
2022-12-04T08:08:34.638Z,1014.89
2022-12-04T08:09:34.614Z,1014.92
2022-12-04T08:10:34.608Z,1014.90
2022-12-04T08:11:34.614Z,1014.93
2022-12-04T08:12:34.608Z,1014.90
2022-12-04T08:13:34.609Z,1014.92
2022-12-04T08:14:34.612Z,1014.92
2022-12-04T08:15:34.617Z,1014.90
2022-12-04T08:16:34.715Z,1014.97
2022-12-04T08:17:34.612Z,1014.95
2022-12-04T08:18:34.612Z,1014.94
2022-12-04T08:19:34.614Z,1014.92
2022-12-04T08:20:34.621Z,1014.96
2022-12-04T08:21:34.623Z,1014.90
2022-12-04T08:22:34.621Z,1014.89
2022-12-04T08:23:34.620Z,1014.93
2022-12-04T08:24:34.638Z,1014.89
2022-12-04T08:25:34.618Z,1014.85
2022-12-04T08:26:34.615Z,1014.87
2022-12-04T08:27:34.619Z,1014.89
2022-12-04T08:28:34.623Z,1014.88
2022-12-04T08:29:34.619Z,1014.87
2022-12-04T08:30:34.733Z,1014.84
2022-12-04T08:31:34.707Z,1014.92
2022-12-04T08:32:34.619Z,1014.92
2022-12-04T08:33:34.625Z,1014.95
2022-12-04T08:34:34.621Z,1014.93
2022-12-04T08:35:34.631Z,1014.99
2022-12-04T08:36:34.622Z,1015.00
2022-12-04T08:37:34.630Z,1015.03
2022-12-04T08:38:34.629Z,1015.02
2022-12-04T08:39:34.625Z,1015.03
2022-12-04T08:40:34.659Z,1015.01
2022-12-04T08:41:34.626Z,1015.03
2022-12-04T08:42:34.627Z,1015.02
2022-12-04T08:43:34.629Z,1014.98
2022-12-04T08:44:34.628Z,1015.00
2022-12-04T08:45:34.630Z,1015.00
2022-12-04T08:46:34.736Z,1015.00
2022-12-04T08:47:34.630Z,1015.02
2022-12-04T08:48:34.638Z,1015.01
2022-12-04T08:49:34.641Z,1014.99
2022-12-04T08:50:34.633Z,1015.01
2022-12-04T08:51:34.644Z,1015.01
2022-12-04T08:52:34.642Z,1014.99
2022-12-04T08:53:34.641Z,1015.02
2022-12-04T08:54:36.394Z,1015.00
2022-12-04T08:55:34.637Z,1014.95
2022-12-04T08:56:34.685Z,1014.98
2022-12-04T08:57:34.645Z,1014.97
2022-12-04T08:58:34.637Z,1014.97
2022-12-04T08:59:34.639Z,1014.95
2022-12-04T09:00:34.648Z,1014.93
2022-12-04T09:01:34.731Z,1015.00
2022-12-04T09:02:34.643Z,1014.95
2022-12-04T09:03:34.643Z,1014.98
2022-12-04T09:04:34.740Z,1014.99
2022-12-04T09:05:34.651Z,1015.00
2022-12-04T09:06:34.642Z,1015.05
2022-12-04T09:07:34.682Z,1015.04
2022-12-04T09:08:34.645Z,1015.08
2022-12-04T09:09:34.652Z,1015.02
2022-12-04T09:10:34.654Z,1015.05
2022-12-04T09:11:34.654Z,1015.04
2022-12-04T09:12:34.672Z,1014.99
2022-12-04T09:13:34.654Z,1015.03
2022-12-04T09:14:34.649Z,1014.98
2022-12-04T09:15:34.694Z,1015.00
2022-12-04T09:16:34.758Z,1014.94
2022-12-04T09:17:34.650Z,1014.99
2022-12-04T09:18:34.652Z,1014.96
2022-12-04T09:19:34.653Z,1014.97
2022-12-04T09:20:34.654Z,1014.98
2022-12-04T09:21:34.662Z,1015.03
2022-12-04T09:22:57.777Z,1015.02
2022-12-04T09:23:34.655Z,1014.95
2022-12-04T09:24:34.664Z,1014.93
2022-12-04T09:25:34.664Z,1014.95
2022-12-04T09:26:34.657Z,1014.96
2022-12-04T09:27:34.658Z,1014.90
2022-12-04T09:28:34.699Z,1014.89
2022-12-04T09:29:34.666Z,1014.81
2022-12-04T09:30:34.666Z,1014.84
2022-12-04T09:31:34.783Z,1014.82
2022-12-04T09:32:34.664Z,1014.81
2022-12-04T09:33:34.663Z,1014.84
2022-12-04T09:34:34.666Z,1014.81
2022-12-04T09:35:34.664Z,1014.80
2022-12-04T09:36:34.673Z,1014.80
2022-12-04T09:37:34.670Z,1014.79
2022-12-04T09:38:34.677Z,1014.77
2022-12-04T09:39:34.669Z,1014.79
2022-12-04T09:40:37.870Z,1014.77
2022-12-04T09:41:34.684Z,1014.80
2022-12-04T09:42:34.670Z,1014.78
2022-12-04T09:43:34.681Z,1014.79
2022-12-04T09:44:34.699Z,1014.78
2022-12-04T09:45:34.681Z,1014.79
2022-12-04T09:46:34.737Z,1014.81
2022-12-04T09:47:34.675Z,1014.79
2022-12-04T09:48:34.680Z,1014.77
2022-12-04T09:49:34.684Z,1014.76
2022-12-04T09:50:34.684Z,1014.75
2022-12-04T09:51:34.687Z,1014.78
2022-12-04T09:52:34.677Z,1014.75
2022-12-04T09:53:34.682Z,1014.78
2022-12-04T09:54:34.680Z,1014.75
2022-12-04T09:55:34.683Z,1014.74
2022-12-04T09:56:34.689Z,1014.72
2022-12-04T09:57:34.682Z,1014.69
2022-12-04T09:58:34.686Z,1014.70
2022-12-04T09:59:34.684Z,1014.70
2022-12-04T10:00:34.712Z,1014.71
2022-12-04T10:01:34.693Z,1014.75
2022-12-04T10:02:34.842Z,1014.72
2022-12-04T10:03:34.789Z,1014.77
2022-12-04T10:04:34.696Z,1014.80
2022-12-04T10:05:34.693Z,1014.79
2022-12-04T10:06:34.690Z,1014.83
2022-12-04T10:07:34.814Z,1014.79
2022-12-04T10:08:34.692Z,1014.82
2022-12-04T10:09:34.698Z,1014.79
2022-12-04T10:10:34.694Z,1014.79
2022-12-04T10:11:34.697Z,1014.78
2022-12-04T10:12:34.704Z,1014.78
2022-12-04T10:13:34.700Z,1014.76
2022-12-04T10:14:34.705Z,1014.75
2022-12-04T10:15:34.780Z,1014.74
2022-12-04T10:16:34.787Z,1014.72
2022-12-04T10:17:34.708Z,1014.72
2022-12-04T10:18:34.712Z,1014.70
2022-12-04T10:19:34.702Z,1014.72
2022-12-04T10:20:34.711Z,1014.67
2022-12-04T10:21:34.718Z,1014.70
2022-12-04T10:22:34.707Z,1014.68
2022-12-04T10:23:34.716Z,1014.62
2022-12-04T10:24:34.714Z,1014.63
2022-12-04T10:25:34.711Z,1014.64
2022-12-04T10:26:34.709Z,1014.62
2022-12-04T10:27:34.718Z,1014.65
2022-12-04T10:28:34.710Z,1014.62
2022-12-04T10:29:34.714Z,1014.67
2022-12-04T10:30:34.721Z,1014.67
2022-12-04T10:31:34.840Z,1014.62
2022-12-04T10:32:34.764Z,1014.67
2022-12-04T10:33:34.718Z,1014.63
2022-12-04T10:34:34.719Z,1014.62
2022-12-04T10:35:34.720Z,1014.62
2022-12-04T10:36:34.725Z,1014.56
2022-12-04T10:37:34.727Z,1014.58
2022-12-04T10:38:34.730Z,1014.58
2022-12-04T10:39:34.720Z,1014.57
2022-12-04T10:40:34.733Z,1014.50
2022-12-04T10:41:34.725Z,1014.50
2022-12-04T10:42:34.733Z,1014.43
2022-12-04T10:43:34.732Z,1014.45
2022-12-04T10:44:34.733Z,1014.49
2022-12-04T10:45:34.742Z,1014.44
2022-12-04T10:46:34.798Z,1014.39
2022-12-04T10:47:34.736Z,1014.40
2022-12-04T10:48:34.761Z,1014.40
2022-12-04T10:49:34.739Z,1014.41
2022-12-04T10:50:34.734Z,1014.40
2022-12-04T10:51:34.742Z,1014.34
2022-12-04T10:52:34.734Z,1014.37
2022-12-04T10:53:34.750Z,1014.36
2022-12-04T10:54:34.745Z,1014.36
2022-12-04T10:55:34.745Z,1014.31
2022-12-04T10:56:34.746Z,1014.29
2022-12-04T10:57:34.740Z,1014.32
2022-12-04T10:58:34.746Z,1014.32
2022-12-04T10:59:34.752Z,1014.26
2022-12-04T11:00:34.752Z,1014.26
2022-12-04T11:01:34.790Z,1014.26
2022-12-04T11:02:34.951Z,1014.29
2022-12-04T11:03:34.802Z,1014.26
2022-12-04T11:04:34.772Z,1014.28
2022-12-04T11:05:34.758Z,1014.28
2022-12-04T11:06:34.759Z,1014.23
2022-12-04T11:07:34.792Z,1014.25
2022-12-04T11:08:34.757Z,1014.26
2022-12-04T11:09:34.758Z,1014.25
2022-12-04T11:10:34.751Z,1014.24
2022-12-04T11:11:34.751Z,1014.21
2022-12-04T11:12:34.761Z,1014.21
2022-12-04T11:13:34.762Z,1014.20
2022-12-04T11:14:34.756Z,1014.18
2022-12-04T11:15:34.766Z,1014.15
2022-12-04T11:16:34.901Z,1014.17
2022-12-04T11:17:34.778Z,1014.17
2022-12-04T11:18:34.761Z,1014.17
2022-12-04T11:19:34.771Z,1014.20
2022-12-04T11:20:34.802Z,1014.19
2022-12-04T11:21:34.770Z,1014.18
2022-12-04T11:22:34.771Z,1014.19
2022-12-04T11:23:34.767Z,1014.16
2022-12-04T11:24:34.768Z,1014.12
2022-12-04T11:25:34.768Z,1014.14
2022-12-04T11:26:34.767Z,1014.15
2022-12-04T11:27:34.771Z,1014.17
2022-12-04T11:28:42.827Z,1014.16
2022-12-04T11:29:34.780Z,1014.16
2022-12-04T11:30:34.799Z,1014.20
2022-12-04T11:31:34.846Z,1014.15
2022-12-04T11:32:34.774Z,1014.15
2022-12-04T11:33:34.780Z,1014.16
2022-12-04T11:34:34.777Z,1014.11
2022-12-04T11:35:34.778Z,1014.08
2022-12-04T11:36:34.810Z,1014.08
2022-12-04T11:37:34.800Z,1014.05
2022-12-04T11:38:34.787Z,1014.03
2022-12-04T11:39:34.782Z,1014.04
2022-12-04T11:40:34.789Z,1014.05
2022-12-04T11:41:34.781Z,1014.05
2022-12-04T11:42:34.788Z,1014.03
2022-12-04T11:43:34.793Z,1014.01
2022-12-04T11:44:34.787Z,1014.05
2022-12-04T11:45:34.794Z,1014.03
2022-12-04T11:46:35.005Z,1014.02
2022-12-04T11:47:34.798Z,1014.00
2022-12-04T11:48:34.799Z,1013.94
2022-12-04T11:49:37.412Z,1013.96
2022-12-04T11:50:34.794Z,1013.99
2022-12-04T11:51:34.796Z,1014.03
2022-12-04T11:52:34.828Z,1014.03
2022-12-04T11:53:34.798Z,1014.02
2022-12-04T11:54:34.797Z,1014.03
2022-12-04T11:55:34.801Z,1014.04
2022-12-04T11:56:34.800Z,1014.05
2022-12-04T11:57:34.802Z,1014.04
2022-12-04T11:58:34.807Z,1014.03
2022-12-04T11:59:34.812Z,1014.03
2022-12-04T12:00:34.805Z,1014.04
2022-12-04T12:01:34.843Z,1014.06
2022-12-04T12:02:35.005Z,1014.04
2022-12-04T12:03:34.893Z,1014.01
2022-12-04T12:04:34.816Z,1014.03
2022-12-04T12:05:34.818Z,1014.05